sensor_id;sensor_type;location;lat;lon;timestamp;pressure;altitude;pressure_sealevel;temperature;humidity
29247;BME280;16272;48.188;9.964;2023-04-29T00:00:03;95512.47;;;11.84;81.83
29247;BME280;16272;48.188;9.964;2023-04-29T00:02:32;95512.31;;;11.94;80.99
29247;BME280;16272;48.188;9.964;2023-04-29T00:04:58;95508.00;;;11.93;80.47
29247;BME280;16272;48.188;9.964;2023-04-29T00:07:23;95505.47;;;11.83;81.23
29247;BME280;16272;48.188;9.964;2023-04-29T00:09:48;95508.44;;;11.80;81.14
29247;BME280;16272;48.188;9.964;2023-04-29T00:12:14;95515.63;;;11.80;80.66
29247;BME280;16272;48.188;9.964;2023-04-29T00:14:39;95517.44;;;11.71;81.35
29247;BME280;16272;48.188;9.964;2023-04-29T00:17:07;95516.75;;;11.61;81.78
29247;BME280;16272;48.188;9.964;2023-04-29T00:19:32;95519.75;;;11.66;81.62
29247;BME280;16272;48.188;9.964;2023-04-29T00:21:57;95511.44;;;11.61;81.32
29247;BME280;16272;48.188;9.964;2023-04-29T00:24:23;95511.75;;;11.57;82.76
29247;BME280;16272;48.188;9.964;2023-04-29T00:26:49;95514.94;;;11.61;81.77
29247;BME280;16272;48.188;9.964;2023-04-29T00:29:14;95521.09;;;11.53;81.84
29247;BME280;16272;48.188;9.964;2023-04-29T00:31:39;95516.41;;;11.47;82.01
29247;BME280;16272;48.188;9.964;2023-04-29T00:34:04;95519.75;;;11.66;80.76
29247;BME280;16272;48.188;9.964;2023-04-29T00:36:30;95520.44;;;11.59;81.82
29247;BME280;16272;48.188;9.964;2023-04-29T00:38:56;95520.59;;;11.50;82.25
29247;BME280;16272;48.188;9.964;2023-04-29T00:41:22;95516.06;;;11.34;81.84
29247;BME280;16272;48.188;9.964;2023-04-29T00:43:48;95527.06;;;11.47;81.49
29247;BME280;16272;48.188;9.964;2023-04-29T00:46:13;95516.72;;;11.44;81.82
29247;BME280;16272;48.188;9.964;2023-04-29T00:48:39;95518.25;;;11.47;81.43
29247;BME280;16272;48.188;9.964;2023-04-29T00:51:05;95518.19;;;11.22;81.90
29247;BME280;16272;48.188;9.964;2023-04-29T00:53:32;95511.22;;;11.21;81.98
29247;BME280;16272;48.188;9.964;2023-04-29T00:55:57;95511.88;;;11.31;80.39
29247;BME280;16272;48.188;9.964;2023-04-29T00:58:24;95515.88;;;11.27;83.60
29247;BME280;16272;48.188;9.964;2023-04-29T01:00:57;95508.75;;;11.36;86.56
29247;BME280;16272;48.188;9.964;2023-04-29T01:03:23;95512.41;;;11.35;86.32
29247;BME280;16272;48.188;9.964;2023-04-29T01:11:13;95523.78;;;11.94;84.38
29247;BME280;16272;48.188;9.964;2023-04-29T01:13:50;95530.44;;;12.07;85.93
29247;BME280;16272;48.188;9.964;2023-04-29T01:16:24;95520.13;;;12.12;87.42
29247;BME280;16272;48.188;9.964;2023-04-29T01:18:57;95527.06;;;12.29;85.80
29247;BME280;16272;48.188;9.964;2023-04-29T01:21:23;95528.41;;;12.42;85.58
29247;BME280;16272;48.188;9.964;2023-04-29T01:23:49;95530.84;;;12.68;84.96
29247;BME280;16272;48.188;9.964;2023-04-29T01:26:21;95530.97;;;12.75;85.36
29247;BME280;16272;48.188;9.964;2023-04-29T01:29:00;95526.66;;;12.65;87.27
29247;BME280;16272;48.188;9.964;2023-04-29T01:31:37;95536.00;;;12.61;87.82
29247;BME280;16272;48.188;9.964;2023-04-29T01:34:13;95535.63;;;12.81;88.77
29247;BME280;16272;48.188;9.964;2023-04-29T01:37:17;95524.91;;;12.97;86.66
29247;BME280;16272;48.188;9.964;2023-04-29T01:42:47;95526.59;;;12.82;90.09
29247;BME280;16272;48.188;9.964;2023-04-29T01:45:16;95520.22;;;12.99;89.13
29247;BME280;16272;48.188;9.964;2023-04-29T01:47:43;95522.91;;;12.91;89.90
29247;BME280;16272;48.188;9.964;2023-04-29T01:50:10;95512.13;;;13.16;88.44
29247;BME280;16272;48.188;9.964;2023-04-29T01:52:35;95517.03;;;13.44;86.31
29247;BME280;16272;48.188;9.964;2023-04-29T01:55:01;95518.06;;;13.34;86.57
29247;BME280;16272;48.188;9.964;2023-04-29T01:57:27;95518.22;;;13.33;85.71
29247;BME280;16272;48.188;9.964;2023-04-29T01:59:53;95509.78;;;13.21;86.84
29247;BME280;16272;48.188;9.964;2023-04-29T02:02:18;95510.94;;;13.27;86.97
29247;BME280;16272;48.188;9.964;2023-04-29T02:04:47;95510.19;;;13.01;88.77
29247;BME280;16272;48.188;9.964;2023-04-29T02:07:13;95513.81;;;13.17;88.30
29247;BME280;16272;48.188;9.964;2023-04-29T02:09:39;95509.78;;;13.21;87.48
29247;BME280;16272;48.188;9.964;2023-04-29T02:12:04;95512.75;;;13.26;87.15
29247;BME280;16272;48.188;9.964;2023-04-29T02:14:30;95502.94;;;13.27;88.29
29247;BME280;16272;48.188;9.964;2023-04-29T02:16:55;95506.16;;;13.14;89.99
29247;BME280;16272;48.188;9.964;2023-04-29T02:19:21;95508.59;;;12.92;90.20
29247;BME280;16272;48.188;9.964;2023-04-29T02:21:46;95511.09;;;13.25;88.40
29247;BME280;16272;48.188;9.964;2023-04-29T02:24:11;95515.59;;;13.24;88.53
29247;BME280;16272;48.188;9.964;2023-04-29T02:26:37;95505.56;;;13.35;89.31
29247;BME280;16272;48.188;9.964;2023-04-29T02:29:02;95505.56;;;13.35;88.84
29247;BME280;16272;48.188;9.964;2023-04-29T02:31:28;95510.34;;;13.39;89.23
29247;BME280;16272;48.188;9.964;2023-04-29T02:33:53;95514.41;;;13.27;90.23
29247;BME280;16272;48.188;9.964;2023-04-29T02:36:19;95509.72;;;13.37;89.76
29247;BME280;16272;48.188;9.964;2023-04-29T02:38:44;95516.91;;;13.37;89.45
29247;BME280;16272;48.188;9.964;2023-04-29T02:41:17;95512.63;;;13.51;88.91
29247;BME280;16272;48.188;9.964;2023-04-29T02:43:42;95503.63;;;13.52;88.41
29247;BME280;16272;48.188;9.964;2023-04-29T02:46:09;95509.72;;;13.29;89.80
29247;BME280;16272;48.188;9.964;2023-04-29T02:48:34;95517.53;;;13.39;88.32
29247;BME280;16272;48.188;9.964;2023-04-29T02:51:00;95508.34;;;13.10;90.31
29247;BME280;16272;48.188;9.964;2023-04-29T02:53:27;95510.97;;;13.50;87.92
29247;BME280;16272;48.188;9.964;2023-04-29T02:55:52;95504.97;;;13.48;87.00
29247;BME280;16272;48.188;9.964;2023-04-29T02:58:17;95501.34;;;13.40;87.06
29247;BME280;16272;48.188;9.964;2023-04-29T03:00:43;95499.34;;;13.42;86.46
29247;BME280;16272;48.188;9.964;2023-04-29T03:03:08;95498.00;;;13.47;85.58
29247;BME280;16272;48.188;9.964;2023-04-29T03:05:34;95502.00;;;13.42;86.83
29247;BME280;16272;48.188;9.964;2023-04-29T03:07:59;95505.25;;;13.21;86.44
29247;BME280;16272;48.188;9.964;2023-04-29T03:10:25;95504.38;;;13.37;85.63
29247;BME280;16272;48.188;9.964;2023-04-29T03:12:50;95503.41;;;13.30;85.70
29247;BME280;16272;48.188;9.964;2023-04-29T03:15:16;95505.56;;;13.35;85.21
29247;BME280;16272;48.188;9.964;2023-04-29T03:17:41;95505.84;;;13.09;86.65
29247;BME280;16272;48.188;9.964;2023-04-29T03:20:07;95503.84;;;13.11;87.46
29247;BME280;16272;48.188;9.964;2023-04-29T03:22:34;95505.34;;;13.05;86.72
29247;BME280;16272;48.188;9.964;2023-04-29T03:25:00;95495.09;;;13.25;84.79
29247;BME280;16272;48.188;9.964;2023-04-29T03:27:25;95500.78;;;13.22;83.34
29247;BME280;16272;48.188;9.964;2023-04-29T03:29:50;95494.38;;;13.31;83.57
29247;BME280;16272;48.188;9.964;2023-04-29T03:32:16;95496.56;;;12.96;86.16
29247;BME280;16272;48.188;9.964;2023-04-29T03:34:41;95493.91;;;12.96;84.72
29247;BME280;16272;48.188;9.964;2023-04-29T03:37:06;95495.63;;;12.89;86.80
29247;BME280;16272;48.188;9.964;2023-04-29T03:39:32;95493.13;;;12.87;85.74
29247;BME280;16272;48.188;9.964;2023-04-29T03:41:58;95492.47;;;12.77;86.63
29247;BME280;16272;48.188;9.964;2023-04-29T03:44:24;95487.16;;;12.85;86.64
29247;BME280;16272;48.188;9.964;2023-04-29T03:46:50;95490.91;;;12.99;85.20
29247;BME280;16272;48.188;9.964;2023-04-29T03:49:15;95496.91;;;12.93;84.13
29247;BME280;16272;48.188;9.964;2023-04-29T03:51:41;95495.84;;;13.11;84.00
29247;BME280;16272;48.188;9.964;2023-04-29T03:54:06;95498.03;;;12.67;87.65
29247;BME280;16272;48.188;9.964;2023-04-29T03:56:32;95504.56;;;12.96;85.95
29247;BME280;16272;48.188;9.964;2023-04-29T03:58:57;95500.31;;;12.79;85.32
29247;BME280;16272;48.188;9.964;2023-04-29T04:01:23;95502.81;;;12.72;85.55
29247;BME280;16272;48.188;9.964;2023-04-29T04:03:48;95503.66;;;12.81;86.80
29247;BME280;16272;48.188;9.964;2023-04-29T04:06:13;95501.66;;;12.75;86.40
29247;BME280;16272;48.188;9.964;2023-04-29T04:08:39;95498.38;;;13.04;84.56
29247;BME280;16272;48.188;9.964;2023-04-29T04:11:05;95503.56;;;12.97;82.98
29247;BME280;16272;48.188;9.964;2023-04-29T04:13:31;95502.03;;;12.63;87.40
29247;BME280;16272;48.188;9.964;2023-04-29T04:15:57;95499.09;;;13.21;83.64
29247;BME280;16272;48.188;9.964;2023-04-29T04:18:23;95510.41;;;13.23;82.39
29247;BME280;16272;48.188;9.964;2023-04-29T04:20:50;95505.34;;;13.05;84.13
29247;BME280;16272;48.188;9.964;2023-04-29T04:23:15;95502.41;;;12.92;82.04
29247;BME280;16272;48.188;9.964;2023-04-29T04:25:47;95507.69;;;12.60;85.95
29247;BME280;16272;48.188;9.964;2023-04-29T04:28:13;95507.53;;;13.01;83.23
29247;BME280;16272;48.188;9.964;2023-04-29T04:30:39;95513.47;;;13.20;82.88
29247;BME280;16272;48.188;9.964;2023-04-29T04:33:04;95511.31;;;13.15;82.60
29247;BME280;16272;48.188;9.964;2023-04-29T04:35:30;95514.16;;;12.74;83.98
29247;BME280;16272;48.188;9.964;2023-04-29T04:37:55;95518.00;;;12.72;85.37
29247;BME280;16272;48.188;9.964;2023-04-29T04:40:21;95513.97;;;12.84;84.96
29247;BME280;16272;48.188;9.964;2023-04-29T04:42:47;95518.91;;;12.87;84.55
29247;BME280;16272;48.188;9.964;2023-04-29T04:45:12;95516.06;;;12.97;83.42
29247;BME280;16272;48.188;9.964;2023-04-29T04:47:39;95511.00;;;12.71;86.12
29247;BME280;16272;48.188;9.964;2023-04-29T04:50:06;95508.31;;;12.71;87.34
29247;BME280;16272;48.188;9.964;2023-04-29T04:52:31;95516.66;;;12.76;85.26
29247;BME280;16272;48.188;9.964;2023-04-29T04:54:56;95513.44;;;12.80;85.64
29247;BME280;16272;48.188;9.964;2023-04-29T04:57:22;95518.88;;;12.95;85.28
29247;BME280;16272;48.188;9.964;2023-04-29T04:59:47;95527.69;;;13.04;85.06
29247;BME280;16272;48.188;9.964;2023-04-29T05:02:12;95527.16;;;13.17;84.09
29247;BME280;16272;48.188;9.964;2023-04-29T05:04:38;95537.84;;;13.09;84.38
29247;BME280;16272;48.188;9.964;2023-04-29T05:07:03;95539.41;;;13.26;85.21
29247;BME280;16272;48.188;9.964;2023-04-29T05:09:29;95542.59;;;13.21;85.66
29247;BME280;16272;48.188;9.964;2023-04-29T05:11:54;95546.13;;;13.53;83.09
29247;BME280;16272;48.188;9.964;2023-04-29T05:14:20;95545.03;;;13.31;83.65
29247;BME280;16272;48.188;9.964;2023-04-29T05:16:45;95553.78;;;13.25;84.81
29247;BME280;16272;48.188;9.964;2023-04-29T05:19:11;95552.03;;;13.40;84.27
29247;BME280;16272;48.188;9.964;2023-04-29T05:21:36;95553.00;;;13.48;84.19
29247;BME280;16272;48.188;9.964;2023-04-29T05:24:01;95559.19;;;13.48;84.37
29247;BME280;16272;48.188;9.964;2023-04-29T05:26:27;95563.41;;;13.34;85.60
29247;BME280;16272;48.188;9.964;2023-04-29T05:28:52;95565.00;;;13.52;85.09
29247;BME280;16272;48.188;9.964;2023-04-29T05:31:17;95556.78;;;13.85;83.78
29247;BME280;16272;48.188;9.964;2023-04-29T05:33:43;95554.22;;;13.91;83.17
29247;BME280;16272;48.188;9.964;2023-04-29T05:36:08;95560.09;;;13.87;83.77
29247;BME280;16272;48.188;9.964;2023-04-29T05:38:33;95561.75;;;13.88;83.84
29247;BME280;16272;48.188;9.964;2023-04-29T05:40:58;95563.88;;;14.15;82.92
29247;BME280;16272;48.188;9.964;2023-04-29T05:43:24;95562.03;;;13.93;83.49
29247;BME280;16272;48.188;9.964;2023-04-29T05:45:49;95567.97;;;14.03;83.93
29247;BME280;16272;48.188;9.964;2023-04-29T05:48:15;95573.03;;;13.98;83.93
29247;BME280;16272;48.188;9.964;2023-04-29T05:50:41;95575.44;;;14.31;83.17
29247;BME280;16272;48.188;9.964;2023-04-29T05:53:07;95578.88;;;13.70;85.38
29247;BME280;16272;48.188;9.964;2023-04-29T05:55:32;95583.41;;;13.93;84.50
29247;BME280;16272;48.188;9.964;2023-04-29T05:57:57;95582.94;;;14.12;84.15
29247;BME280;16272;48.188;9.964;2023-04-29T06:00:24;95600.00;;;14.49;83.71
29247;BME280;16272;48.188;9.964;2023-04-29T06:02:49;95601.63;;;14.50;83.33
29247;BME280;16272;48.188;9.964;2023-04-29T06:05:14;95598.22;;;14.42;82.79
29247;BME280;16272;48.188;9.964;2023-04-29T06:07:41;95600.91;;;14.57;82.28
29247;BME280;16272;48.188;9.964;2023-04-29T06:10:08;95606.22;;;14.65;81.69
29247;BME280;16272;48.188;9.964;2023-04-29T06:12:33;95602.06;;;14.77;80.51
29247;BME280;16272;48.188;9.964;2023-04-29T06:15:00;95602.94;;;14.93;81.76
29247;BME280;16272;48.188;9.964;2023-04-29T06:17:26;95598.13;;;15.18;80.64
29247;BME280;16272;48.188;9.964;2023-04-29T06:19:56;95601.09;;;15.08;79.84
29247;BME280;16272;48.188;9.964;2023-04-29T06:22:21;95602.56;;;14.66;80.03
29247;BME280;16272;48.188;9.964;2023-04-29T06:24:47;95609.91;;;14.64;81.58
29247;BME280;16272;48.188;9.964;2023-04-29T06:27:14;95605.16;;;14.89;80.59
29247;BME280;16272;48.188;9.964;2023-04-29T06:29:40;95615.34;;;14.85;79.97
29247;BME280;16272;48.188;9.964;2023-04-29T06:32:05;95613.25;;;14.81;79.79
29247;BME280;16272;48.188;9.964;2023-04-29T06:34:30;95610.59;;;15.11;80.23
29247;BME280;16272;48.188;9.964;2023-04-29T06:36:56;95612.25;;;15.41;78.48
29247;BME280;16272;48.188;9.964;2023-04-29T06:39:21;95611.94;;;15.36;79.68
29247;BME280;16272;48.188;9.964;2023-04-29T06:41:46;95610.25;;;15.65;79.09
29247;BME280;16272;48.188;9.964;2023-04-29T06:44:12;95617.91;;;15.83;78.63
29247;BME280;16272;48.188;9.964;2023-04-29T06:46:37;95617.91;;;15.83;79.25
29247;BME280;16272;48.188;9.964;2023-04-29T06:49:04;95623.69;;;15.05;79.66
29247;BME280;16272;48.188;9.964;2023-04-29T06:51:30;95618.25;;;15.14;79.64
29247;BME280;16272;48.188;9.964;2023-04-29T06:53:56;95620.16;;;15.65;77.87
29247;BME280;16272;48.188;9.964;2023-04-29T06:56:21;95616.47;;;16.02;79.50
29247;BME280;16272;48.188;9.964;2023-04-29T06:58:47;95617.50;;;16.01;77.73
29247;BME280;16272;48.188;9.964;2023-04-29T07:01:13;95621.88;;;15.87;77.66
29247;BME280;16272;48.188;9.964;2023-04-29T07:03:40;95615.56;;;15.95;77.31
29247;BME280;16272;48.188;9.964;2023-04-29T07:06:06;95612.69;;;16.40;75.22
29247;BME280;16272;48.188;9.964;2023-04-29T07:08:31;95614.25;;;15.69;75.36
29247;BME280;16272;48.188;9.964;2023-04-29T07:10:58;95616.59;;;15.94;75.43
29247;BME280;16272;48.188;9.964;2023-04-29T07:13:24;95614.69;;;15.88;77.03
29247;BME280;16272;48.188;9.964;2023-04-29T07:15:49;95616.13;;;15.90;78.76
29247;BME280;16272;48.188;9.964;2023-04-29T07:18:15;95614.47;;;16.54;76.23
29247;BME280;16272;48.188;9.964;2023-04-29T07:20:40;95614.88;;;16.29;77.01
29247;BME280;16272;48.188;9.964;2023-04-29T07:23:06;95611.19;;;16.09;76.96
29247;BME280;16272;48.188;9.964;2023-04-29T07:25:31;95620.22;;;15.71;77.30
29247;BME280;16272;48.188;9.964;2023-04-29T07:27:58;95613.75;;;16.17;73.40
29247;BME280;16272;48.188;9.964;2023-04-29T07:30:23;95613.16;;;16.93;75.17
29247;BME280;16272;48.188;9.964;2023-04-29T07:32:49;95619.19;;;17.30;71.90
29247;BME280;16272;48.188;9.964;2023-04-29T07:35:14;95613.34;;;17.26;70.72
29247;BME280;16272;48.188;9.964;2023-04-29T07:37:39;95612.31;;;17.21;69.75
29247;BME280;16272;48.188;9.964;2023-04-29T07:40:07;95605.53;;;16.68;66.80
29247;BME280;16272;48.188;9.964;2023-04-29T07:42:32;95610.41;;;17.50;69.12
29247;BME280;16272;48.188;9.964;2023-04-29T07:44:57;95607.09;;;17.54;70.39
29247;BME280;16272;48.188;9.964;2023-04-29T07:47:22;95606.06;;;17.49;70.59
29247;BME280;16272;48.188;9.964;2023-04-29T07:49:48;95613.84;;;17.37;67.68
29247;BME280;16272;48.188;9.964;2023-04-29T07:52:13;95617.19;;;17.45;68.80
29247;BME280;16272;48.188;9.964;2023-04-29T07:54:38;95620.34;;;17.21;67.15
29247;BME280;16272;48.188;9.964;2023-04-29T07:57:04;95622.22;;;16.92;65.87
29247;BME280;16272;48.188;9.964;2023-04-29T07:59:30;95624.06;;;17.20;66.29
29247;BME280;16272;48.188;9.964;2023-04-29T08:01:56;95627.16;;;16.88;66.38
29247;BME280;16272;48.188;9.964;2023-04-29T08:04:21;95632.84;;;17.35;66.93
29247;BME280;16272;48.188;9.964;2023-04-29T08:06:47;95629.47;;;17.68;66.24
29247;BME280;16272;48.188;9.964;2023-04-29T08:09:13;95627.84;;;17.32;65.32
29247;BME280;16272;48.188;9.964;2023-04-29T08:11:38;95625.53;;;17.64;65.42
29247;BME280;16272;48.188;9.964;2023-04-29T08:14:04;95618.13;;;17.73;65.35
29247;BME280;16272;48.188;9.964;2023-04-29T08:16:29;95622.81;;;17.16;64.80
29247;BME280;16272;48.188;9.964;2023-04-29T08:18:55;95623.97;;;17.06;65.56
29247;BME280;16272;48.188;9.964;2023-04-29T08:21:21;95626.91;;;17.12;65.59
29247;BME280;16272;48.188;9.964;2023-04-29T08:23:46;95624.25;;;17.53;63.94
29247;BME280;16272;48.188;9.964;2023-04-29T08:26:11;95630.59;;;17.04;65.64
29247;BME280;16272;48.188;9.964;2023-04-29T08:28:37;95625.50;;;16.87;65.44
29247;BME280;16272;48.188;9.964;2023-04-29T08:31:03;95635.44;;;16.94;63.12
29247;BME280;16272;48.188;9.964;2023-04-29T08:33:32;95632.94;;;16.42;65.54
29247;BME280;16272;48.188;9.964;2023-04-29T08:35:58;95625.16;;;16.26;65.63
29247;BME280;16272;48.188;9.964;2023-04-29T08:38:24;95631.31;;;16.05;65.86
29247;BME280;16272;48.188;9.964;2023-04-29T08:40:50;95631.53;;;16.25;65.61
29247;BME280;16272;48.188;9.964;2023-04-29T08:43:15;95642.31;;;16.31;64.25
29247;BME280;16272;48.188;9.964;2023-04-29T08:45:42;95642.56;;;16.58;64.38
29247;BME280;16272;48.188;9.964;2023-04-29T08:48:08;95639.00;;;16.72;64.83
29247;BME280;16272;48.188;9.964;2023-04-29T08:50:39;95637.53;;;16.98;63.24
29247;BME280;16272;48.188;9.964;2023-04-29T08:53:05;95634.41;;;16.23;64.76
29247;BME280;16272;48.188;9.964;2023-04-29T08:55:34;95639.78;;;16.45;63.86
29247;BME280;16272;48.188;9.964;2023-04-29T08:58:01;95646.25;;;16.57;65.51
29247;BME280;16272;48.188;9.964;2023-04-29T09:00:26;95641.34;;;16.61;62.67
29247;BME280;16272;48.188;9.964;2023-04-29T09:02:53;95643.66;;;16.42;62.73
29247;BME280;16272;48.188;9.964;2023-04-29T09:05:20;95646.50;;;17.05;62.22
29247;BME280;16272;48.188;9.964;2023-04-29T09:07:47;95649.31;;;16.97;62.68
29247;BME280;16272;48.188;9.964;2023-04-29T09:10:13;95633.06;;;17.05;60.56
29247;BME280;16272;48.188;9.964;2023-04-29T09:12:39;95632.13;;;17.61;58.61
29247;BME280;16272;48.188;9.964;2023-04-29T09:15:05;95634.91;;;18.63;59.54
29247;BME280;16272;48.188;9.964;2023-04-29T09:17:44;95640.84;;;18.25;55.74
29247;BME280;16272;48.188;9.964;2023-04-29T09:22:56;95632.50;;;19.67;53.82
29247;BME280;16272;48.188;9.964;2023-04-29T09:25:22;95633.69;;;19.06;56.68
29247;BME280;16272;48.188;9.964;2023-04-29T09:27:47;95625.22;;;18.96;54.98
29247;BME280;16272;48.188;9.964;2023-04-29T09:30:13;95633.84;;;18.44;55.33
29247;BME280;16272;48.188;9.964;2023-04-29T09:32:41;95632.81;;;18.59;56.34
29247;BME280;16272;48.188;9.964;2023-04-29T09:35:23;95625.81;;;18.78;53.98
29247;BME280;16272;48.188;9.964;2023-04-29T09:37:50;95639.59;;;18.14;56.28
29247;BME280;16272;48.188;9.964;2023-04-29T09:40:36;95633.00;;;18.24;53.84
29247;BME280;16272;48.188;9.964;2023-04-29T09:43:02;95636.91;;;18.14;56.68
29247;BME280;16272;48.188;9.964;2023-04-29T09:45:38;95635.75;;;18.90;53.41
29247;BME280;16272;48.188;9.964;2023-04-29T09:48:07;95633.44;;;18.61;52.83
29247;BME280;16272;48.188;9.964;2023-04-29T09:50:33;95635.53;;;19.25;54.17
29247;BME280;16272;48.188;9.964;2023-04-29T09:52:59;95630.06;;;20.11;50.12
29247;BME280;16272;48.188;9.964;2023-04-29T09:55:25;95624.00;;;19.77;50.89
29247;BME280;16272;48.188;9.964;2023-04-29T09:57:52;95632.41;;;19.35;51.73
29247;BME280;16272;48.188;9.964;2023-04-29T10:00:17;95636.59;;;18.98;50.02
29247;BME280;16272;48.188;9.964;2023-04-29T10:02:45;95632.78;;;19.45;50.87
29247;BME280;16272;48.188;9.964;2023-04-29T10:05:17;95630.31;;;20.02;51.81
29247;BME280;16272;48.188;9.964;2023-04-29T10:07:45;95627.28;;;20.56;50.91
29247;BME280;16272;48.188;9.964;2023-04-29T10:10:11;95624.81;;;20.23;48.35
29247;BME280;16272;48.188;9.964;2023-04-29T10:12:39;95634.97;;;19.75;48.71
29247;BME280;16272;48.188;9.964;2023-04-29T10:15:28;95620.59;;;20.33;47.09
29247;BME280;16272;48.188;9.964;2023-04-29T10:18:19;95635.69;;;19.44;47.99
29247;BME280;16272;48.188;9.964;2023-04-29T10:20:47;95636.88;;;19.61;48.08
29247;BME280;16272;48.188;9.964;2023-04-29T10:23:14;95621.81;;;20.06;49.09
29247;BME280;16272;48.188;9.964;2023-04-29T10:25:41;95626.28;;;20.82;47.77
29247;BME280;16272;48.188;9.964;2023-04-29T10:28:14;95630.00;;;20.88;46.36
29247;BME280;16272;48.188;9.964;2023-04-29T10:30:43;95613.34;;;21.35;46.69
29247;BME280;16272;48.188;9.964;2023-04-29T10:33:10;95620.66;;;20.84;47.84
29247;BME280;16272;48.188;9.964;2023-04-29T10:35:36;95611.19;;;20.43;45.86
29247;BME280;16272;48.188;9.964;2023-04-29T10:38:07;95609.72;;;20.47;45.69
29247;BME280;16272;48.188;9.964;2023-04-29T10:40:44;95608.50;;;20.43;45.03
29247;BME280;16272;48.188;9.964;2023-04-29T10:43:11;95607.84;;;20.47;45.10
29247;BME280;16272;48.188;9.964;2023-04-29T10:45:36;95610.84;;;21.15;44.89
29247;BME280;16272;48.188;9.964;2023-04-29T10:50:31;95601.19;;;20.18;45.12
29247;BME280;16272;48.188;9.964;2023-04-29T10:53:01;95593.94;;;19.80;45.30
29247;BME280;16272;48.188;9.964;2023-04-29T10:55:26;95603.66;;;19.88;45.36
29247;BME280;16272;48.188;9.964;2023-04-29T10:57:52;95595.81;;;19.79;45.61
29247;BME280;16272;48.188;9.964;2023-04-29T11:00:22;95594.44;;;20.02;44.21
29247;BME280;16272;48.188;9.964;2023-04-29T11:02:52;95595.88;;;20.05;46.69
29247;BME280;16272;48.188;9.964;2023-04-29T11:05:28;95588.38;;;20.45;45.38
29247;BME280;16272;48.188;9.964;2023-04-29T11:08:20;95585.09;;;19.53;46.99
29247;BME280;16272;48.188;9.964;2023-04-29T11:10:52;95589.16;;;18.97;49.34
29247;BME280;16272;48.188;9.964;2023-04-29T11:13:25;95591.72;;;20.41;44.95
29247;BME280;16272;48.188;9.964;2023-04-29T11:15:52;95596.00;;;20.16;43.80
29247;BME280;16272;48.188;9.964;2023-04-29T11:18:17;95594.03;;;20.62;45.02
29247;BME280;16272;48.188;9.964;2023-04-29T11:23:34;95590.22;;;20.13;44.87
29247;BME280;16272;48.188;9.964;2023-04-29T11:26:00;95585.53;;;20.01;43.39
29247;BME280;16272;48.188;9.964;2023-04-29T11:28:30;95580.31;;;20.38;43.58
29247;BME280;16272;48.188;9.964;2023-04-29T11:30:59;95581.41;;;19.47;44.39
29247;BME280;16272;48.188;9.964;2023-04-29T11:33:25;95579.00;;;19.71;45.93
29247;BME280;16272;48.188;9.964;2023-04-29T11:35:52;95582.94;;;19.75;43.80
29247;BME280;16272;48.188;9.964;2023-04-29T11:38:26;95581.16;;;20.07;45.41
29247;BME280;16272;48.188;9.964;2023-04-29T11:40:53;95584.41;;;20.98;45.57
29247;BME280;16272;48.188;9.964;2023-04-29T11:43:19;95586.28;;;20.72;43.75
29247;BME280;16272;48.188;9.964;2023-04-29T11:45:45;95589.66;;;20.93;43.88
29247;BME280;16272;48.188;9.964;2023-04-29T11:48:21;95584.69;;;20.90;43.88
29247;BME280;16272;48.188;9.964;2023-04-29T11:50:50;95584.75;;;20.26;44.20
29247;BME280;16272;48.188;9.964;2023-04-29T11:53:15;95572.50;;;21.06;43.53
29247;BME280;16272;48.188;9.964;2023-04-29T11:55:44;95567.63;;;20.14;42.53
29247;BME280;16272;48.188;9.964;2023-04-29T11:58:10;95569.59;;;21.44;41.88
29247;BME280;16272;48.188;9.964;2023-04-29T12:00:38;95566.16;;;21.19;45.16
29247;BME280;16272;48.188;9.964;2023-04-29T12:03:13;95574.22;;;21.00;42.47
29247;BME280;16272;48.188;9.964;2023-04-29T12:05:39;95575.28;;;21.36;42.02
29247;BME280;16272;48.188;9.964;2023-04-29T12:08:06;95586.75;;;20.37;44.57
29247;BME280;16272;48.188;9.964;2023-04-29T12:10:35;95587.91;;;19.85;43.69
29247;BME280;16272;48.188;9.964;2023-04-29T12:13:01;95578.81;;;20.43;46.66
29247;BME280;16272;48.188;9.964;2023-04-29T12:15:27;95586.16;;;21.11;43.50
29247;BME280;16272;48.188;9.964;2023-04-29T12:17:54;95572.00;;;21.16;43.44
29247;BME280;16272;48.188;9.964;2023-04-29T12:20:19;95574.78;;;21.27;42.12
29247;BME280;16272;48.188;9.964;2023-04-29T12:22:46;95574.09;;;21.32;42.75
29247;BME280;16272;48.188;9.964;2023-04-29T12:25:11;95582.31;;;21.00;42.37
29247;BME280;16272;48.188;9.964;2023-04-29T12:27:39;95575.97;;;20.37;45.81
29247;BME280;16272;48.188;9.964;2023-04-29T12:30:07;95577.03;;;19.98;43.01
29247;BME280;16272;48.188;9.964;2023-04-29T12:32:33;95571.63;;;20.87;41.83
29247;BME280;16272;48.188;9.964;2023-04-29T12:35:01;95566.59;;;21.16;41.31
29247;BME280;16272;48.188;9.964;2023-04-29T12:37:26;95564.97;;;21.52;40.40
29247;BME280;16272;48.188;9.964;2023-04-29T12:39:54;95573.97;;;20.83;43.49
29247;BME280;16272;48.188;9.964;2023-04-29T12:42:19;95573.81;;;21.40;43.87
29247;BME280;16272;48.188;9.964;2023-04-29T12:44:45;95586.47;;;20.46;42.53
29247;BME280;16272;48.188;9.964;2023-04-29T12:47:14;95572.66;;;20.61;45.94
29247;BME280;16272;48.188;9.964;2023-04-29T12:49:43;95578.34;;;20.52;44.58
29247;BME280;16272;48.188;9.964;2023-04-29T12:52:09;95575.69;;;20.46;45.24
29247;BME280;16272;48.188;9.964;2023-04-29T12:54:35;95575.34;;;20.67;44.55
29247;BME280;16272;48.188;9.964;2023-04-29T12:57:01;95573.19;;;21.20;45.30
29247;BME280;16272;48.188;9.964;2023-04-29T12:59:26;95587.47;;;20.83;40.88
29247;BME280;16272;48.188;9.964;2023-04-29T13:01:52;95581.94;;;20.97;41.52
29247;BME280;16272;48.188;9.964;2023-04-29T13:04:17;95574.41;;;20.23;43.04
29247;BME280;16272;48.188;9.964;2023-04-29T13:06:42;95575.34;;;20.35;41.35
29247;BME280;16272;48.188;9.964;2023-04-29T13:09:08;95574.25;;;21.19;42.74
29247;BME280;16272;48.188;9.964;2023-04-29T13:11:39;95566.91;;;21.26;42.25
29247;BME280;16272;48.188;9.964;2023-04-29T13:14:05;95572.28;;;20.57;43.83